ROMMA est une association bénévole à but non lucratif. Votre soutien est indispensable : ADHERER à ROMMA ou FAIRE un DON

Granges-lès-Beaumont - (26, Drôme)

Drôme des Collines (155 m)   Longitude: 04°58'E   Latitude: 45°03'N Station partenaire n°123
 

Détail journalier du     <<     >>

Température Precipitation Humidité Pression Vent Dir Rafale Dir. rafale Ensol.
Heure (°C) (mm) (%) (hPa) (km/h) (km/h) (min)
01:00 6.6078102310NNO24NO0
02:00 7.2075102413NNO29NNO0
03:00 7.1074102516NNO34NO0
04:00 7.1073102618NNO37NNO0
05:00 6.6075102618NNO34NNO0
06:00 6.7072102713NNO27NO0
07:00 5.9073102814NO31NO0
08:00 4.707710288NNO24NO0
09:00 4.8077102810NO23NNO0
10:00 6.0074102815NNO31NNO20
11:00 6.9072102820NNO34N60
12:00 7.8071102719N37N60
13:00 8.1065102719N37N60
14:00 8.5065102621N40NNE60
15:00 8.2061102620NNE34NNE60
16:00 7.8064102518NNE32NNE50
17:00 6.9067102410N23NNE20
18:00 5.907210245N21NNO0
19:00 5.107410247NNO18NNO0
20:00 4.107810249NNO15NNO0
21:00 3.6080102311NNO18NNO0
22:00 3.408010239NNO18NO0
23:00 2.708310237NO13NNO0
minuit 1.408710222---11O0

Graphique du 10-12-2019

 

Serveur OMMA